MUCM/CMW METAR and TAF weather

Enter ICAO airport designator
Station Type Date Time Source
MUCM METAR 2020/09/30 15:50 UTC NOAA

MUCM 301550Z 07006KT 030V110 9000 SCT020 30/23 Q1014


Station Type Date Time Source
MUCM Decoded METAR 2020/09/30 15:50 UTC NOAA

Camaguey Aeropuerto, Cuba (MUCM) 21-25N 077-51W 118M
Sep 30, 2020 - 11:50 AM EDT / 2020.09.30 1550 UTC
Wind: from the ENE (070 degrees) at 7 MPH (6 KT) (direction variable):0
Visibility: 5 mile(s):0
Sky conditions: partly cloudy
Temperature: 86 F (30 C)
Heat index: 93.4 F (34.1 C):1
Dew Point: 73 F (23 C)
Relative Humidity: 66%
Pressure (altimeter): 29.94 in. Hg (1014 hPa)
ob: MUCM 301550Z 07006KT 030V110 9000 SCT020 30/23 Q1014
cycle: 16

Station Type Date Time Source
MUCM TAF 2020/09/30 12:03 UTC NOAA

TAF MUCM 301100Z 3012/0112 VRB03KT 9000 SCT020
BECMG 3013/3015 15008KT
TEMPO 3016/3024 VRB10KT 5000 TSRA SCT018CB BKN020
BECMG 0101/0103 VRB03KT

Example: see airport list